createdAt,value
2022-12-04T00:01:34.571Z,9.90
2022-12-04T00:04:01.019Z,10.00
2022-12-04T00:06:27.501Z,10.00
2022-12-04T00:08:53.962Z,10.00
2022-12-04T00:11:20.447Z,9.90
2022-12-04T00:13:46.895Z,9.90
2022-12-04T00:16:13.426Z,10.00
2022-12-04T00:18:39.931Z,9.90
2022-12-04T00:21:06.381Z,9.90
2022-12-04T00:23:32.847Z,9.90
2022-12-04T00:25:59.310Z,9.90
2022-12-04T00:28:25.766Z,10.00
2022-12-04T00:30:52.219Z,10.00
2022-12-04T00:33:18.681Z,9.90
2022-12-04T00:35:45.152Z,9.90
2022-12-04T00:38:11.631Z,9.90
2022-12-04T00:40:38.098Z,9.90
2022-12-04T00:43:04.554Z,9.90
2022-12-04T00:45:31.091Z,9.90
2022-12-04T00:47:57.581Z,10.00
2022-12-04T00:50:24.042Z,10.00
2022-12-04T00:52:50.495Z,10.00
2022-12-04T00:55:16.953Z,10.00
2022-12-04T00:57:43.428Z,10.00
2022-12-04T01:00:09.881Z,10.00
2022-12-04T01:02:36.372Z,10.00
2022-12-04T01:05:02.916Z,10.00
2022-12-04T01:07:29.464Z,10.00
2022-12-04T01:09:56.305Z,9.90
2022-12-04T01:12:22.940Z,9.90
2022-12-04T01:14:49.394Z,10.00
2022-12-04T01:17:15.886Z,9.90
2022-12-04T01:19:42.342Z,9.90
2022-12-04T01:22:08.831Z,9.90
2022-12-04T01:24:35.284Z,10.00
2022-12-04T01:27:01.756Z,10.00
2022-12-04T01:29:28.213Z,10.00
2022-12-04T01:31:54.734Z,10.00
2022-12-04T01:34:21.277Z,10.00
2022-12-04T01:36:47.733Z,10.00
2022-12-04T01:39:14.204Z,9.90
2022-12-04T01:41:40.710Z,9.90
2022-12-04T01:44:07.175Z,9.90
2022-12-04T01:46:33.620Z,9.90
2022-12-04T01:49:00.106Z,9.90
2022-12-04T01:51:26.555Z,9.90
2022-12-04T01:53:53.034Z,9.90
2022-12-04T01:56:19.489Z,10.00
2022-12-04T01:58:45.984Z,10.00
2022-12-04T02:01:12.528Z,9.90
2022-12-04T02:03:39.072Z,9.90
2022-12-04T02:06:05.537Z,9.90
2022-12-04T02:08:32.027Z,9.90
2022-12-04T02:10:58.493Z,10.00
2022-12-04T02:13:24.934Z,10.00
2022-12-04T02:15:51.403Z,9.90
2022-12-04T02:18:17.870Z,9.90
2022-12-04T02:20:44.350Z,9.90
2022-12-04T02:23:10.809Z,9.80
2022-12-04T02:25:37.279Z,9.80
2022-12-04T02:28:03.748Z,9.80
2022-12-04T02:30:30.293Z,9.80
2022-12-04T02:32:56.798Z,9.80
2022-12-04T02:35:23.262Z,9.90
2022-12-04T02:37:49.718Z,9.90
2022-12-04T02:40:16.188Z,9.90
2022-12-04T02:42:42.651Z,9.80
2022-12-04T02:45:09.120Z,9.90
2022-12-04T02:47:35.575Z,9.90
2022-12-04T02:50:02.068Z,9.90
2022-12-04T02:52:28.552Z,9.90
2022-12-04T02:54:55.031Z,9.90
2022-12-04T02:57:24.926Z,9.90
2022-12-04T02:59:51.390Z,9.90
2022-12-04T03:02:17.935Z,9.90
2022-12-04T03:04:44.461Z,9.90
2022-12-04T03:07:12.826Z,9.90
2022-12-04T03:09:39.369Z,10.00
2022-12-04T03:12:05.835Z,10.00
2022-12-04T03:14:32.302Z,9.90
2022-12-04T03:16:58.782Z,10.00
2022-12-04T03:19:25.263Z,10.00
2022-12-04T03:21:51.729Z,10.00
2022-12-04T03:24:18.198Z,10.00
2022-12-04T03:26:44.655Z,10.00
2022-12-04T03:29:11.103Z,10.00
2022-12-04T03:31:37.568Z,10.00
2022-12-04T03:34:04.028Z,10.00
2022-12-04T03:36:30.490Z,10.00
2022-12-04T03:38:56.957Z,10.00
2022-12-04T03:41:23.426Z,10.00
2022-12-04T03:43:49.908Z,10.00
2022-12-04T03:46:16.434Z,10.00
2022-12-04T03:48:42.954Z,9.90
2022-12-04T03:51:09.423Z,9.90
2022-12-04T03:53:35.879Z,10.00
2022-12-04T03:56:02.360Z,10.00
2022-12-04T03:58:28.809Z,9.90
2022-12-04T04:00:55.290Z,9.90
2022-12-04T04:03:21.750Z,9.90
2022-12-04T04:05:48.214Z,9.80
2022-12-04T04:08:14.756Z,9.90
2022-12-04T04:10:41.264Z,9.90
2022-12-04T04:13:07.730Z,9.90
2022-12-04T04:15:34.249Z,9.90
2022-12-04T04:18:01.073Z,9.90
2022-12-04T04:20:27.527Z,9.90
2022-12-04T04:22:56.135Z,9.90
2022-12-04T04:25:22.891Z,9.90
2022-12-04T04:27:49.338Z,9.90
2022-12-04T04:30:15.815Z,9.90
2022-12-04T04:32:42.292Z,9.90
2022-12-04T04:35:08.748Z,9.90
2022-12-04T04:37:35.206Z,9.90
2022-12-04T04:40:01.662Z,9.90
2022-12-04T04:42:28.126Z,9.90
2022-12-04T04:44:54.609Z,10.00
2022-12-04T04:47:21.084Z,9.90
2022-12-04T04:49:47.541Z,9.90
2022-12-04T04:52:14.013Z,9.90
2022-12-04T04:54:40.458Z,9.90
2022-12-04T04:57:06.959Z,9.90
2022-12-04T04:59:33.409Z,9.90
2022-12-04T05:01:59.957Z,9.90
2022-12-04T05:04:26.490Z,9.90
2022-12-04T05:06:54.931Z,9.90
2022-12-04T05:09:21.400Z,9.90
2022-12-04T05:11:48.944Z,9.90
2022-12-04T05:14:15.401Z,9.90
2022-12-04T05:16:41.953Z,10.00
2022-12-04T05:19:08.976Z,10.00
2022-12-04T05:21:35.471Z,9.90
2022-12-04T05:24:01.925Z,9.90
2022-12-04T05:26:28.399Z,9.90
2022-12-04T05:28:54.864Z,9.90
2022-12-04T05:31:21.478Z,10.00
2022-12-04T05:33:47.971Z,9.90
2022-12-04T05:36:14.414Z,9.90
2022-12-04T05:38:40.864Z,9.90
2022-12-04T05:41:07.352Z,9.90
2022-12-04T05:43:33.806Z,9.90
2022-12-04T05:46:00.262Z,9.90
2022-12-04T05:48:26.718Z,9.90
2022-12-04T05:50:53.169Z,9.90
2022-12-04T05:53:19.647Z,9.90
2022-12-04T05:55:46.114Z,9.90
2022-12-04T05:58:12.566Z,9.90
2022-12-04T06:00:39.033Z,9.90
2022-12-04T06:03:05.548Z,9.90
2022-12-04T06:05:32.073Z,9.90
2022-12-04T06:07:58.578Z,9.90
2022-12-04T06:10:25.076Z,10.00
2022-12-04T06:12:51.525Z,9.90
2022-12-04T06:15:18.000Z,9.90
2022-12-04T06:17:44.453Z,9.90
2022-12-04T06:20:11.932Z,9.90
2022-12-04T06:22:38.587Z,9.90
2022-12-04T06:25:05.032Z,9.90
2022-12-04T06:27:31.516Z,9.90
2022-12-04T06:29:58.346Z,9.90
2022-12-04T06:32:25.092Z,9.90
2022-12-04T06:34:51.577Z,9.80
2022-12-04T06:37:18.064Z,9.90
2022-12-04T06:39:44.508Z,9.80
2022-12-04T06:42:10.988Z,9.80
2022-12-04T06:44:37.451Z,9.90
2022-12-04T06:47:03.924Z,9.90
2022-12-04T06:49:30.391Z,9.90
2022-12-04T06:51:56.859Z,9.80
2022-12-04T06:54:23.326Z,9.80
2022-12-04T06:56:49.788Z,9.90
2022-12-04T06:59:16.251Z,9.90
2022-12-04T07:01:42.785Z,9.80
2022-12-04T07:04:09.335Z,9.80
2022-12-04T07:06:35.809Z,9.90
2022-12-04T07:09:02.279Z,9.90
2022-12-04T07:11:28.751Z,9.90
2022-12-04T07:13:55.220Z,9.90
2022-12-04T07:16:21.703Z,9.90
2022-12-04T07:18:48.164Z,9.90
2022-12-04T07:21:14.638Z,10.00
2022-12-04T07:23:41.105Z,10.20
2022-12-04T07:26:07.555Z,10.30
2022-12-04T07:28:34.032Z,10.60
2022-12-04T07:31:00.491Z,10.70
2022-12-04T07:33:26.971Z,10.90
2022-12-04T07:35:53.441Z,11.00
2022-12-04T07:38:19.894Z,11.00
2022-12-04T07:40:46.355Z,11.20
2022-12-04T07:43:12.804Z,11.30
2022-12-04T07:45:39.295Z,11.40
2022-12-04T07:48:05.769Z,11.50
2022-12-04T07:50:32.210Z,11.60
2022-12-04T07:52:58.672Z,11.70
2022-12-04T07:55:25.134Z,11.80
2022-12-04T07:57:51.598Z,11.90
2022-12-04T08:00:18.217Z,12.00
2022-12-04T08:02:44.707Z,12.00
2022-12-04T08:05:11.162Z,12.10
2022-12-04T08:07:37.662Z,12.20
2022-12-04T08:10:04.176Z,12.20
2022-12-04T08:12:30.640Z,12.30
2022-12-04T08:14:57.093Z,12.30
2022-12-04T08:17:23.572Z,12.40
2022-12-04T08:19:50.034Z,12.40
2022-12-04T08:22:23.420Z,12.50
2022-12-04T08:24:51.609Z,12.60
2022-12-04T08:27:18.070Z,12.70
2022-12-04T08:29:44.551Z,12.70
2022-12-04T08:32:11.006Z,12.80
2022-12-04T08:34:37.463Z,12.80
2022-12-04T08:37:03.919Z,12.80
2022-12-04T08:39:30.404Z,12.80
2022-12-04T08:41:57.410Z,12.90
2022-12-04T08:44:23.967Z,13.00
2022-12-04T08:46:50.479Z,13.00
2022-12-04T08:49:16.989Z,13.00
2022-12-04T08:51:43.453Z,13.00
2022-12-04T08:54:09.914Z,13.10
2022-12-04T08:56:36.374Z,13.10
2022-12-04T08:59:02.839Z,13.20
2022-12-04T09:01:29.406Z,13.10
2022-12-04T09:03:55.995Z,13.30
2022-12-04T09:06:22.493Z,13.30
2022-12-04T09:08:48.937Z,13.30
2022-12-04T09:11:15.388Z,13.20
2022-12-04T09:13:41.852Z,13.10
2022-12-04T09:16:08.452Z,12.90
2022-12-04T09:18:34.954Z,12.80
2022-12-04T09:21:01.453Z,12.70
2022-12-04T09:23:27.898Z,12.60
2022-12-04T09:25:54.366Z,12.50
2022-12-04T09:28:20.833Z,12.40
2022-12-04T09:30:47.338Z,12.30
2022-12-04T09:33:13.810Z,12.20
2022-12-04T09:35:40.294Z,12.20
2022-12-04T09:38:06.741Z,12.00
2022-12-04T09:40:37.466Z,11.90
2022-12-04T09:43:04.534Z,11.90
2022-12-04T09:45:31.019Z,11.80
2022-12-04T09:47:57.484Z,11.80
2022-12-04T09:50:23.963Z,11.80
2022-12-04T09:52:50.429Z,11.80
2022-12-04T09:55:16.919Z,11.80
2022-12-04T09:57:43.387Z,11.60
2022-12-04T10:00:09.871Z,11.60
2022-12-04T10:02:36.475Z,11.50
2022-12-04T10:05:03.084Z,11.50
2022-12-04T10:07:29.619Z,11.50
2022-12-04T10:09:56.493Z,11.40
2022-12-04T10:12:23.158Z,11.40
2022-12-04T10:14:49.618Z,11.30
2022-12-04T10:17:16.071Z,11.30
2022-12-04T10:19:42.556Z,11.30
2022-12-04T10:22:09.011Z,11.20
2022-12-04T10:24:35.470Z,11.20
2022-12-04T10:27:01.938Z,11.20
2022-12-04T10:29:28.388Z,11.30
2022-12-04T10:31:54.830Z,11.20
2022-12-04T10:34:21.295Z,11.20
2022-12-04T10:36:47.755Z,11.20
2022-12-04T10:39:14.218Z,11.10
2022-12-04T10:41:40.691Z,11.00
2022-12-04T10:44:07.149Z,11.10
2022-12-04T10:46:40.574Z,11.00
2022-12-04T10:49:09.645Z,11.10
2022-12-04T10:51:36.119Z,11.00
2022-12-04T10:54:02.602Z,11.00
2022-12-04T10:56:29.083Z,11.00
2022-12-04T10:58:55.535Z,11.00
2022-12-04T11:01:22.079Z,11.00
2022-12-04T11:03:48.597Z,11.00
2022-12-04T11:06:15.051Z,10.90
2022-12-04T11:08:41.511Z,10.80
2022-12-04T11:11:07.964Z,10.90
2022-12-04T11:13:34.441Z,10.90
2022-12-04T11:16:00.976Z,10.90
2022-12-04T11:18:27.482Z,10.90
2022-12-04T11:20:53.945Z,10.90
2022-12-04T11:23:20.393Z,10.90
2022-12-04T11:25:46.885Z,10.90
2022-12-04T11:28:33.615Z,10.90
2022-12-04T11:30:59.839Z,10.90
2022-12-04T11:33:26.331Z,10.80
2022-12-04T11:35:52.819Z,10.80
2022-12-04T11:38:19.268Z,10.80
2022-12-04T11:40:45.761Z,10.70
2022-12-04T11:43:12.226Z,10.70
2022-12-04T11:45:38.703Z,10.70
2022-12-04T11:48:05.194Z,10.80
2022-12-04T11:50:31.630Z,10.70
2022-12-04T11:52:58.089Z,10.80
2022-12-04T11:55:28.740Z,10.80
2022-12-04T11:57:55.733Z,10.80
2022-12-04T12:00:22.195Z,10.70
2022-12-04T12:02:48.797Z,10.70
2022-12-04T12:05:15.366Z,10.70
2022-12-04T12:07:41.910Z,10.70
2022-12-04T12:10:08.396Z,10.70
2022-12-04T12:12:34.872Z,10.60
2022-12-04T12:15:01.322Z,10.60
2022-12-04T12:17:27.801Z,10.60
2022-12-04T12:19:54.527Z,10.60
2022-12-04T12:22:21.276Z,10.60
2022-12-04T12:24:51.308Z,10.60
2022-12-04T12:27:17.935Z,10.50
2022-12-04T12:29:44.432Z,10.50
2022-12-04T12:32:11.005Z,10.50
2022-12-04T12:34:37.556Z,10.50
2022-12-04T12:37:04.040Z,10.50
2022-12-04T12:39:30.508Z,10.50
2022-12-04T12:41:56.969Z,10.70
2022-12-04T12:44:23.429Z,10.80
2022-12-04T12:46:49.899Z,11.00
2022-12-04T12:49:16.363Z,11.10
2022-12-04T12:51:42.829Z,11.10
2022-12-04T12:54:09.291Z,11.20
2022-12-04T12:56:35.759Z,11.10
2022-12-04T12:59:02.223Z,11.10
2022-12-04T13:01:28.729Z,11.10
2022-12-04T13:03:55.231Z,11.10
2022-12-04T13:06:21.699Z,11.00
2022-12-04T13:08:49.418Z,10.90
2022-12-04T13:11:15.994Z,10.90
2022-12-04T13:13:42.459Z,10.90
2022-12-04T13:16:13.537Z,10.80
2022-12-04T13:18:40.056Z,10.80
2022-12-04T13:21:06.550Z,10.80
2022-12-04T13:23:33.027Z,10.70
2022-12-04T13:25:59.505Z,10.60
2022-12-04T13:28:25.969Z,10.70
2022-12-04T13:30:52.429Z,10.60
2022-12-04T13:33:18.884Z,10.70
2022-12-04T13:35:45.363Z,10.60
2022-12-04T13:38:11.825Z,10.60
2022-12-04T13:40:38.283Z,10.60
2022-12-04T13:43:04.773Z,10.60
2022-12-04T13:45:31.260Z,10.60
2022-12-04T13:47:57.730Z,10.60
2022-12-04T13:50:24.196Z,10.60
2022-12-04T13:52:50.654Z,10.60
2022-12-04T13:55:17.123Z,10.50
2022-12-04T13:57:43.590Z,10.60
2022-12-04T14:00:10.079Z,10.60
2022-12-04T14:02:36.620Z,10.50
2022-12-04T14:05:03.114Z,10.50
2022-12-04T14:07:29.634Z,10.60
2022-12-04T14:09:56.146Z,10.60
2022-12-04T14:12:22.607Z,10.50
2022-12-04T14:14:49.076Z,10.50
2022-12-04T14:17:15.593Z,10.50
2022-12-04T14:19:42.178Z,10.60
2022-12-04T14:22:08.641Z,10.70
2022-12-04T14:24:35.157Z,10.90
2022-12-04T14:27:11.759Z,11.10
2022-12-04T14:29:38.534Z,11.20
2022-12-04T14:32:04.982Z,11.20
2022-12-04T14:34:31.435Z,11.30
2022-12-04T14:36:57.892Z,11.20
2022-12-04T14:39:24.381Z,11.20
2022-12-04T14:41:50.828Z,11.20
2022-12-04T14:44:17.277Z,11.10
2022-12-04T14:46:43.807Z,11.10
2022-12-04T14:49:10.327Z,11.00
2022-12-04T14:51:36.788Z,11.00
2022-12-04T14:54:03.254Z,11.00
2022-12-04T14:56:29.723Z,10.90
2022-12-04T14:58:56.259Z,10.80
2022-12-04T15:01:28.428Z,10.80
2022-12-04T15:03:55.736Z,10.80
2022-12-04T15:06:22.213Z,10.70
2022-12-04T15:08:48.673Z,10.70
2022-12-04T15:11:15.129Z,10.60
2022-12-04T15:13:41.646Z,10.60
2022-12-04T15:16:08.156Z,10.70
2022-12-04T15:18:39.420Z,10.60
2022-12-04T15:21:06.219Z,10.60
2022-12-04T15:23:32.688Z,10.60
2022-12-04T15:25:59.169Z,10.60
2022-12-04T15:28:25.643Z,10.60
2022-12-04T15:30:52.161Z,10.60
2022-12-04T15:33:21.449Z,10.60
2022-12-04T15:35:48.386Z,10.70
2022-12-04T15:38:14.867Z,10.60
2022-12-04T15:40:41.375Z,10.60
2022-12-04T15:43:07.844Z,10.60
2022-12-04T15:45:34.348Z,10.60
2022-12-04T15:48:00.852Z,10.60
2022-12-04T15:50:27.336Z,10.60
2022-12-04T15:52:53.801Z,10.50
2022-12-04T15:55:20.341Z,10.50
2022-12-04T15:57:46.811Z,10.50
2022-12-04T16:00:13.286Z,10.50
2022-12-04T16:02:39.746Z,10.50
2022-12-04T16:05:06.234Z,10.50
2022-12-04T16:07:32.707Z,10.50
2022-12-04T16:10:03.235Z,10.50
2022-12-04T16:12:30.337Z,10.60
2022-12-04T16:14:56.954Z,10.50
2022-12-04T16:17:23.630Z,10.50
2022-12-04T16:19:50.092Z,10.60
2022-12-04T16:22:20.133Z,10.60
2022-12-04T16:24:46.929Z,10.60
2022-12-04T16:27:13.390Z,10.60
2022-12-04T16:29:43.610Z,10.70
2022-12-04T16:32:10.074Z,10.60
2022-12-04T16:34:36.542Z,10.60
2022-12-04T16:37:03.004Z,10.60
2022-12-04T16:39:29.456Z,10.60
2022-12-04T16:41:55.919Z,10.60
2022-12-04T16:44:22.380Z,10.60
2022-12-04T16:46:48.903Z,10.60
2022-12-04T16:49:15.410Z,10.60
2022-12-04T16:51:41.863Z,10.60
2022-12-04T16:54:08.322Z,10.50
2022-12-04T16:56:34.781Z,10.60
2022-12-04T16:59:01.228Z,10.80
2022-12-04T17:01:27.722Z,10.90
2022-12-04T17:03:54.314Z,11.00
2022-12-04T17:06:21.059Z,11.10
2022-12-04T17:08:47.528Z,11.20
2022-12-04T17:11:13.999Z,11.20
2022-12-04T17:13:40.454Z,11.20
2022-12-04T17:16:06.963Z,11.30
2022-12-04T17:18:33.443Z,11.20
2022-12-04T17:20:59.938Z,11.10
2022-12-04T17:23:26.393Z,11.10
2022-12-04T17:25:52.891Z,11.00
2022-12-04T17:28:19.355Z,10.90
2022-12-04T17:30:45.838Z,10.90
2022-12-04T17:33:12.286Z,10.80
2022-12-04T17:35:38.770Z,10.70
2022-12-04T17:38:06.393Z,10.70
2022-12-04T17:40:33.041Z,10.60
2022-12-04T17:42:59.514Z,10.60
2022-12-04T17:45:25.992Z,10.60
2022-12-04T17:47:52.458Z,10.50
2022-12-04T17:50:18.918Z,10.50
2022-12-04T17:52:45.402Z,10.50
2022-12-04T17:55:11.862Z,10.50
2022-12-04T17:57:38.333Z,10.50
2022-12-04T18:00:04.804Z,10.50
2022-12-04T18:02:31.312Z,10.50
2022-12-04T18:04:59.155Z,10.50
2022-12-04T18:07:25.683Z,10.50
2022-12-04T18:09:52.138Z,10.50
2022-12-04T18:12:18.599Z,10.60
2022-12-04T18:14:45.055Z,10.70
2022-12-04T18:17:11.507Z,10.80
2022-12-04T18:19:37.967Z,10.90
2022-12-04T18:22:04.434Z,11.10
2022-12-04T18:24:30.891Z,11.10
2022-12-04T18:26:57.368Z,11.20
2022-12-04T18:29:23.840Z,11.10
2022-12-04T18:31:50.319Z,11.10
2022-12-04T18:34:16.822Z,11.00
2022-12-04T18:36:43.276Z,11.00
2022-12-04T18:39:09.731Z,10.90
2022-12-04T18:41:36.202Z,10.90
2022-12-04T18:44:02.684Z,10.90
2022-12-04T18:46:29.250Z,10.80
2022-12-04T18:48:55.742Z,10.70
2022-12-04T18:51:22.210Z,10.60
2022-12-04T18:53:48.664Z,10.60
2022-12-04T18:56:15.126Z,10.60
2022-12-04T18:58:41.596Z,10.50
2022-12-04T19:01:08.106Z,10.50
2022-12-04T19:03:34.597Z,10.50
2022-12-04T19:06:01.113Z,10.50
2022-12-04T19:08:32.940Z,10.40
2022-12-04T19:11:00.700Z,10.50
2022-12-04T19:13:27.156Z,10.40
2022-12-04T19:15:53.633Z,10.40
2022-12-04T19:18:20.090Z,10.40
2022-12-04T19:20:46.592Z,10.40
2022-12-04T19:23:13.047Z,10.40
2022-12-04T19:25:39.501Z,10.50
2022-12-04T19:28:05.959Z,10.50
2022-12-04T19:30:32.409Z,10.50
2022-12-04T19:32:58.865Z,10.50
2022-12-04T19:35:25.326Z,10.50
2022-12-04T19:37:52.782Z,10.40
2022-12-04T19:40:19.441Z,10.50
2022-12-04T19:42:45.929Z,10.40
2022-12-04T19:45:12.399Z,10.40
2022-12-04T19:47:38.876Z,10.40
2022-12-04T19:50:05.337Z,10.40
2022-12-04T19:52:31.812Z,10.30
2022-12-04T19:54:58.290Z,10.30
2022-12-04T19:57:24.766Z,10.40
2022-12-04T19:59:51.224Z,10.40
2022-12-04T20:02:17.755Z,10.40
2022-12-04T20:04:44.289Z,10.40
2022-12-04T20:07:10.746Z,10.40
2022-12-04T20:09:37.223Z,10.40
2022-12-04T20:12:03.685Z,10.40
2022-12-04T20:14:30.155Z,10.40
2022-12-04T20:16:56.663Z,10.40
2022-12-04T20:19:23.150Z,10.30
2022-12-04T20:21:49.608Z,10.30
2022-12-04T20:24:16.076Z,10.30
2022-12-04T20:26:42.534Z,10.30
2022-12-04T20:29:09.027Z,10.30
2022-12-04T20:31:35.495Z,10.30
2022-12-04T20:34:01.978Z,10.30
2022-12-04T20:36:28.441Z,10.30
2022-12-04T20:38:54.930Z,10.30
2022-12-04T20:41:21.412Z,10.30
2022-12-04T20:43:47.890Z,10.30
2022-12-04T20:46:14.499Z,10.30
2022-12-04T20:48:41.016Z,10.30
2022-12-04T20:51:07.483Z,10.30
2022-12-04T20:53:33.959Z,10.20
2022-12-04T20:56:00.420Z,10.20
2022-12-04T20:58:26.879Z,10.20
2022-12-04T21:00:55.728Z,10.30
2022-12-04T21:03:22.198Z,10.30
2022-12-04T21:05:48.672Z,10.30
2022-12-04T21:08:15.173Z,10.20
2022-12-04T21:10:41.674Z,10.20
2022-12-04T21:13:08.132Z,10.20
2022-12-04T21:15:34.615Z,10.20
2022-12-04T21:18:01.101Z,10.20
2022-12-04T21:20:27.580Z,10.20
2022-12-04T21:22:54.031Z,10.20
2022-12-04T21:25:20.500Z,10.20
2022-12-04T21:27:46.971Z,10.20
2022-12-04T21:30:13.447Z,10.30
2022-12-04T21:32:39.902Z,10.30
2022-12-04T21:35:06.357Z,10.30
2022-12-04T21:37:32.809Z,10.30
2022-12-04T21:39:59.786Z,10.30
2022-12-04T21:42:26.459Z,10.30
2022-12-04T21:44:52.937Z,10.20
2022-12-04T21:47:19.394Z,10.20
2022-12-04T21:49:45.878Z,10.20
2022-12-04T21:52:12.343Z,10.30
2022-12-04T21:54:38.802Z,10.20
2022-12-04T21:57:05.258Z,10.20
2022-12-04T21:59:31.733Z,10.20
2022-12-04T22:01:58.231Z,10.20
2022-12-04T22:04:24.749Z,10.20
2022-12-04T22:06:51.234Z,10.20
2022-12-04T22:09:17.694Z,10.20
2022-12-04T22:11:44.195Z,10.20
2022-12-04T22:14:10.661Z,10.20
2022-12-04T22:16:41.871Z,10.20
2022-12-04T22:19:09.062Z,10.20
2022-12-04T22:21:35.546Z,10.20
2022-12-04T22:24:01.992Z,10.10
2022-12-04T22:26:28.468Z,10.10
2022-12-04T22:28:54.918Z,10.10
2022-12-04T22:31:21.501Z,10.20
2022-12-04T22:33:47.995Z,10.20
2022-12-04T22:36:14.478Z,10.20
2022-12-04T22:39:05.990Z,10.10
2022-12-04T22:41:27.392Z,10.10
2022-12-04T22:43:53.860Z,10.10
2022-12-04T22:46:20.411Z,10.10
2022-12-04T22:48:46.929Z,10.10
2022-12-04T22:51:13.421Z,10.10
2022-12-04T22:53:39.883Z,10.10
2022-12-04T22:56:06.369Z,10.10
2022-12-04T22:58:32.834Z,10.10
2022-12-04T23:00:59.326Z,10.10
2022-12-04T23:03:25.834Z,10.10
2022-12-04T23:05:52.353Z,10.10
2022-12-04T23:08:18.877Z,10.10
2022-12-04T23:10:45.415Z,10.10
2022-12-04T23:13:11.869Z,10.10
2022-12-04T23:15:38.368Z,10.10
2022-12-04T23:18:04.832Z,10.10
2022-12-04T23:20:31.320Z,10.10
2022-12-04T23:22:57.771Z,10.20
2022-12-04T23:25:24.262Z,10.10
2022-12-04T23:27:50.727Z,10.20
2022-12-04T23:30:21.423Z,10.10
2022-12-04T23:32:50.939Z,10.10
2022-12-04T23:35:17.430Z,10.00
2022-12-04T23:37:43.903Z,10.00
2022-12-04T23:40:10.362Z,10.10
2022-12-04T23:42:36.821Z,10.00
2022-12-04T23:45:03.274Z,10.00
2022-12-04T23:47:29.734Z,10.00
2022-12-04T23:49:56.450Z,10.00
2022-12-04T23:52:23.097Z,10.00
2022-12-04T23:54:49.561Z,10.00
2022-12-04T23:57:16.010Z,9.90
2022-12-04T23:59:43.817Z,10.00
